Time;durP1;ratioP1;P1;durP2;ratioP2;P2;SDS_P1;SDS_P2;PMS_P1;PMS_P2;Temp;Humidity;BMP_temperature;BMP_pressure;BME280_temperature;BME280_humidity;BME280_pressure;Samples;Min_cycle;Max_cycle;Signal;HPM_P1;HPM_P2
2022/07/13 00:00:17;;;;;;;2.07;1.37;;;18.00;99.70;;;;;;4217427;28;20292;-75
2022/07/13 00:02:21;;;;;;;2.10;1.43;;;17.90;99.60;;;;;;4213988;28;20287;-76
2022/07/13 00:04:23;;;;;;;3.47;1.50;;;17.90;99.80;;;;;;4207724;28;20613;-75
2022/07/13 00:06:24;;;;;;;5.37;2.10;;;17.90;99.90;;;;;;4208487;28;20291;-74
2022/07/13 00:08:26;;;;;;;3.00;1.93;;;17.90;99.90;;;;;;4210615;28;20224;-75
2022/07/13 00:10:29;;;;;;;2.80;2.00;;;17.80;99.90;;;;;;4210931;28;20431;-74
2022/07/13 00:12:31;;;;;;;3.20;2.00;;;17.70;99.90;;;;;;4208813;28;20212;-74
2022/07/13 00:14:33;;;;;;;2.40;1.83;;;17.70;99.90;;;;;;4209997;28;20279;-76
2022/07/13 00:16:35;;;;;;;2.40;1.90;;;17.60;99.90;;;;;;4209448;28;20547;-75
2022/07/13 00:18:38;;;;;;;4.03;1.97;;;17.50;99.90;;;;;;4203959;28;20264;-75
2022/07/13 00:20:40;;;;;;;2.27;1.80;;;17.50;99.90;;;;;;4212322;28;20587;-74
2022/07/13 00:22:42;;;;;;;2.73;1.87;;;17.40;99.90;;;;;;4214197;28;20284;-75
2022/07/13 00:24:44;;;;;;;2.40;1.80;;;17.40;99.90;;;;;;4211948;28;20224;-75
2022/07/13 00:26:45;;;;;;;2.50;1.70;;;17.40;99.90;;;;;;4210111;28;20233;-75
2022/07/13 00:28:47;;;;;;;2.13;1.60;;;17.30;99.90;;;;;;4213594;28;20709;-74
2022/07/13 00:30:49;;;;;;;2.93;1.60;;;17.30;99.90;;;;;;4209566;28;20280;-74
2022/07/13 00:32:51;;;;;;;1.70;1.30;;;17.30;99.90;;;;;;4213555;28;20296;-74
2022/07/13 00:34:54;;;;;;;2.13;1.60;;;17.20;99.90;;;;;;4210557;28;20236;-74
2022/07/13 00:36:56;;;;;;;3.70;1.80;;;17.20;99.90;;;;;;4211422;28;20320;-74
2022/07/13 00:38:58;;;;;;;2.07;1.50;;;17.20;99.90;;;;;;4209727;28;20228;-75
2022/07/13 00:41:00;;;;;;;2.80;1.70;;;17.20;99.90;;;;;;4210586;28;20216;-76
2022/07/13 00:43:02;;;;;;;4.57;1.77;;;17.20;99.90;;;;;;4208774;28;20651;-74
2022/07/13 00:45:05;;;;;;;2.80;2.00;;;17.20;99.90;;;;;;4206780;28;20204;-75
2022/07/13 00:47:07;;;;;;;2.50;1.77;;;17.10;99.90;;;;;;4207829;28;20584;-75
2022/07/13 00:49:11;;;;;;;1.93;1.53;;;17.10;99.90;;;;;;4211046;28;20213;-74
2022/07/13 00:51:15;;;;;;;1.83;1.60;;;17.10;99.90;;;;;;4212605;28;20321;-75
2022/07/13 00:53:18;;;;;;;2.07;1.63;;;17.10;99.90;;;;;;4215167;28;20231;-74
2022/07/13 00:55:20;;;;;;;2.57;1.47;;;17.10;99.90;;;;;;4208146;28;20228;-75
2022/07/13 00:57:22;;;;;;;3.83;1.50;;;17.20;99.90;;;;;;4208801;28;20220;-74
2022/07/13 00:59:25;;;;;;;2.13;1.60;;;17.20;99.90;;;;;;4209063;28;20236;-75
2022/07/13 01:01:27;;;;;;;1.77;1.33;;;17.10;99.90;;;;;;4208352;28;20208;-75
2022/07/13 01:03:29;;;;;;;1.97;1.60;;;17.10;99.90;;;;;;4203179;28;20596;-74
2022/07/13 01:05:31;;;;;;;2.90;1.80;;;17.10;99.90;;;;;;4208035;28;20231;-75
2022/07/13 01:07:35;;;;;;;2.43;1.70;;;17.10;99.90;;;;;;4219318;28;20665;-74
2022/07/13 01:09:37;;;;;;;2.33;1.70;;;17.10;99.90;;;;;;4208145;28;20582;-74
2022/07/13 01:11:41;;;;;;;2.60;1.50;;;17.10;99.90;;;;;;4211410;28;20228;-76
2022/07/13 01:13:44;;;;;;;2.23;1.60;;;17.10;99.90;;;;;;4208331;28;20305;-76
2022/07/13 01:15:46;;;;;;;2.30;1.50;;;17.10;99.90;;;;;;4210843;28;20647;-75
2022/07/13 01:17:49;;;;;;;2.27;1.40;;;17.10;99.90;;;;;;4207325;28;20832;-74
2022/07/13 01:19:54;;;;;;;3.10;1.60;;;17.10;99.90;;;;;;4211950;28;20235;-74
2022/07/13 01:21:59;;;;;;;2.23;1.30;;;17.10;99.90;;;;;;4216530;28;20209;-74
2022/07/13 01:24:03;;;;;;;1.63;1.23;;;17.10;99.90;;;;;;4216021;28;20201;-74
2022/07/13 01:26:07;;;;;;;2.47;1.50;;;17.10;99.90;;;;;;4215072;28;20260;-75
2022/07/13 01:28:09;;;;;;;1.83;1.37;;;17.10;99.90;;;;;;4212710;28;20353;-74
2022/07/13 01:30:11;;;;;;;2.10;1.50;;;17.10;99.90;;;;;;4215986;28;20216;-75
2022/07/13 01:32:13;;;;;;;1.70;1.40;;;17.10;99.90;;;;;;4219616;28;20304;-74
2022/07/13 01:34:16;;;;;;;1.47;1.20;;;17.10;99.90;;;;;;4211530;28;20242;-75
2022/07/13 01:36:18;;;;;;;2.00;1.40;;;17.10;99.90;;;;;;4203508;28;20270;-76
2022/07/13 01:38:20;;;;;;;2.33;1.40;;;17.10;99.90;;;;;;4217535;28;20232;-74
2022/07/13 01:40:23;;;;;;;2.57;1.60;;;17.10;99.90;;;;;;4213004;28;20313;-73
2022/07/13 01:43:16;;;;;;;1.63;1.37;;;17.10;99.90;;;;;;4207238;28;20244;-74
2022/07/13 01:46:08;;;;;;;2.17;1.37;;;17.10;99.90;;;;;;4211242;28;20342;-76
2022/07/13 01:49:00;;;;;;;1.73;1.27;;;17.10;99.90;;;;;;4204093;28;20206;-74
2022/07/13 01:51:52;;;;;;;2.23;1.27;;;17.10;99.90;;;;;;4208963;28;20292;-74
2022/07/13 01:54:44;;;;;;;1.90;1.40;;;17.10;99.90;;;;;;4214315;28;20241;-74
2022/07/13 01:57:37;;;;;;;2.80;1.60;;;17.10;99.90;;;;;;4205876;28;20240;-75
2022/07/13 02:00:29;;;;;;;2.27;1.30;;;17.10;99.90;;;;;;4205520;28;20758;-74
2022/07/13 02:03:21;;;;;;;2.10;1.53;;;17.10;99.90;;;;;;4206929;28;20580;-74
2022/07/13 02:06:14;;;;;;;1.93;1.20;;;17.10;99.90;;;;;;4212162;28;20315;-76
2022/07/13 02:09:06;;;;;;;2.87;1.50;;;17.10;99.90;;;;;;4209787;28;20860;-74
2022/07/13 02:11:58;;;;;;;1.63;1.33;;;17.10;99.90;;;;;;4206564;28;20205;-74
2022/07/13 02:14:50;;;;;;;3.33;1.33;;;17.10;99.90;;;;;;4210815;28;20236;-74
2022/07/13 02:17:42;;;;;;;1.93;1.40;;;17.10;99.90;;;;;;4208117;28;20323;-74
2022/07/13 02:20:33;;;;;;;2.10;1.50;;;17.10;99.90;;;;;;4205022;28;20225;-74
2022/07/13 02:23:25;;;;;;;1.57;1.27;;;17.10;99.90;;;;;;4208325;28;20303;-74
2022/07/13 02:26:17;;;;;;;2.10;1.40;;;17.10;99.90;;;;;;4205709;28;20315;-73
2022/07/13 02:29:10;;;;;;;1.77;1.40;;;17.10;99.90;;;;;;4203318;28;20234;-74
2022/07/13 02:32:03;;;;;;;2.57;1.50;;;17.10;99.90;;;;;;4208660;28;20212;-74
2022/07/13 02:34:56;;;;;;;2.60;1.47;;;17.10;99.90;;;;;;4204073;28;20305;-74
2022/07/13 02:37:49;;;;;;;2.77;1.77;;;17.10;99.90;;;;;;4202600;28;20904;-75
2022/07/13 02:40:40;;;;;;;1.93;1.50;;;17.10;99.90;;;;;;4211348;28;20227;-74
2022/07/13 02:43:33;;;;;;;2.23;1.80;;;17.10;99.90;;;;;;4206088;28;20683;-76
2022/07/13 02:46:26;;;;;;;2.53;1.70;;;17.10;99.90;;;;;;4208397;28;20324;-74
2022/07/13 02:49:17;;;;;;;2.00;1.70;;;17.10;99.90;;;;;;4196807;28;20205;-74
2022/07/13 02:52:10;;;;;;;2.93;2.00;;;17.10;99.90;;;;;;4207094;28;20297;-74
2022/07/13 02:55:03;;;;;;;3.30;1.80;;;17.10;99.90;;;;;;4212991;28;20215;-74
2022/07/13 02:57:56;;;;;;;2.40;1.70;;;17.10;99.90;;;;;;4197658;28;20300;-74
2022/07/13 03:00:51;;;;;;;2.60;1.87;;;17.10;99.90;;;;;;4216943;28;20255;-74
2022/07/13 03:03:43;;;;;;;2.93;1.93;;;17.10;99.90;;;;;;4212173;28;20296;-74
2022/07/13 03:06:35;;;;;;;3.10;1.50;;;17.10;99.90;;;;;;4203971;28;20344;-74
2022/07/13 03:09:27;;;;;;;2.10;1.13;;;17.10;99.90;;;;;;4202738;28;20199;-76
2022/07/13 03:12:20;;;;;;;3.10;1.70;;;17.10;99.90;;;;;;4202553;28;20303;-73
2022/07/13 03:15:15;;;;;;;2.83;1.60;;;17.00;99.90;;;;;;4201166;28;20248;-75
2022/07/13 03:18:07;;;;;;;1.67;1.40;;;17.10;99.90;;;;;;4211775;28;20241;-75
2022/07/13 03:21:00;;;;;;;1.67;1.43;;;17.10;99.90;;;;;;4206420;28;20266;-73
2022/07/13 03:23:51;;;;;;;2.30;1.60;;;17.10;99.90;;;;;;4211212;28;20215;-74
2022/07/13 03:26:44;;;;;;;1.60;1.40;;;17.10;99.90;;;;;;4206517;28;20229;-76
2022/07/13 03:29:35;;;;;;;3.03;1.60;;;17.10;99.90;;;;;;4199446;28;20217;-74
2022/07/13 03:32:28;;;;;;;2.17;1.40;;;17.10;99.90;;;;;;4208909;28;20209;-74
2022/07/13 03:35:21;;;;;;;4.07;1.40;;;17.10;99.90;;;;;;4216065;28;20212;-74
2022/07/13 03:38:12;;;;;;;2.67;1.57;;;17.10;99.90;;;;;;4207925;28;20213;-74
2022/07/13 03:41:05;;;;;;;2.23;1.40;;;17.10;99.90;;;;;;4211581;28;20232;-74
2022/07/13 03:43:58;;;;;;;1.70;1.40;;;17.10;99.90;;;;;;4213381;28;20215;-74
2022/07/13 03:46:51;;;;;;;2.07;1.40;;;17.10;99.90;;;;;;4212646;28;20244;-75
2022/07/13 03:49:44;;;;;;;3.07;1.40;;;17.10;99.90;;;;;;4215590;28;20201;-74
2022/07/13 03:52:37;;;;;;;1.80;1.30;;;17.10;99.90;;;;;;4209550;28;20915;-74
2022/07/13 03:55:29;;;;;;;2.13;1.20;;;17.10;99.90;;;;;;4216561;28;20220;-73
2022/07/13 03:58:22;;;;;;;1.43;1.20;;;17.10;99.90;;;;;;4198510;28;20864;-73
2022/07/13 04:01:15;;;;;;;2.30;1.30;;;17.10;99.90;;;;;;4204775;28;20239;-77
2022/07/13 04:04:07;;;;;;;2.00;1.60;;;17.10;99.90;;;;;;4214959;28;20208;-76
2022/07/13 04:06:59;;;;;;;1.70;1.30;;;17.20;99.90;;;;;;4211537;28;20237;-78
2022/07/13 04:09:51;;;;;;;2.03;1.40;;;17.20;99.90;;;;;;4216426;28;20222;-74
2022/07/13 04:12:44;;;;;;;1.20;1.07;;;17.20;99.90;;;;;;4207497;28;20213;-78
2022/07/13 04:15:37;;;;;;;2.30;1.60;;;17.20;99.90;;;;;;4214403;28;20200;-73
2022/07/13 04:18:30;;;;;;;3.33;2.20;;;17.20;99.90;;;;;;4199390;28;20869;-73
2022/07/13 04:21:22;;;;;;;4.00;2.33;;;17.20;99.90;;;;;;4208678;28;21145;-76
2022/07/13 04:24:14;;;;;;;4.63;1.70;;;17.30;99.90;;;;;;4213360;28;20216;-77
2022/07/13 04:27:06;;;;;;;3.17;1.90;;;17.30;99.90;;;;;;4206752;28;20825;-77
2022/07/13 04:29:58;;;;;;;2.03;1.60;;;17.30;99.90;;;;;;4197489;28;20276;-73
2022/07/13 04:32:49;;;;;;;3.23;1.97;;;17.40;99.90;;;;;;4210057;28;20220;-74
2022/07/13 04:35:42;;;;;;;2.17;1.60;;;17.40;99.90;;;;;;4205996;28;20209;-74
2022/07/13 04:38:34;;;;;;;2.40;1.50;;;17.40;99.90;;;;;;4201225;28;20198;-74
2022/07/13 04:41:26;;;;;;;2.83;1.33;;;17.40;99.90;;;;;;4211239;28;20236;-75
2022/07/13 04:44:19;;;;;;;1.97;1.47;;;17.50;99.90;;;;;;4201744;28;20706;-75
2022/07/13 04:46:27;;;;;;;2.37;1.70;;;17.50;99.90;;;;;;4292936;22;20489;-76
2022/07/13 04:48:29;;;;;;;1.67;1.50;;;17.50;99.90;;;;;;4206323;28;20300;-76
2022/07/13 04:50:31;;;;;;;1.87;1.50;;;17.50;99.90;;;;;;4229107;27;20279;-76
2022/07/13 04:52:35;;;;;;;3.13;1.40;;;17.50;99.90;;;;;;4230718;27;20207;-76
2022/07/13 04:54:37;;;;;;;2.10;1.40;;;17.60;99.90;;;;;;4231295;27;20250;-76
2022/07/13 04:56:39;;;;;;;2.07;1.50;;;17.60;99.90;;;;;;4228270;27;20303;-76
2022/07/13 04:58:41;;;;;;;1.50;1.40;;;17.60;99.90;;;;;;4224977;27;20209;-76
2022/07/13 05:00:43;;;;;;;1.90;1.43;;;17.60;99.90;;;;;;4225574;27;20235;-76
2022/07/13 05:02:47;;;;;;;1.93;1.47;;;17.70;99.90;;;;;;4222599;28;20259;-77
2022/07/13 05:04:49;;;;;;;2.47;1.53;;;17.70;99.90;;;;;;4227956;27;20223;-75
2022/07/13 05:06:51;;;;;;;2.07;1.50;;;17.70;99.90;;;;;;4205790;28;20233;-75
2022/07/13 05:08:53;;;;;;;2.80;1.43;;;17.70;99.90;;;;;;4211909;28;20205;-82
2022/07/13 05:10:55;;;;;;;1.50;1.20;;;17.80;99.90;;;;;;4218421;28;20205;-82
2022/07/13 05:12:57;;;;;;;3.10;1.37;;;17.80;99.90;;;;;;4207873;28;20209;-75
2022/07/13 05:14:59;;;;;;;2.90;1.50;;;17.80;99.90;;;;;;4230822;27;20205;-77
2022/07/13 05:17:01;;;;;;;3.03;1.40;;;17.90;99.90;;;;;;4228023;27;20221;-78
2022/07/13 05:19:05;;;;;;;6.17;1.60;;;17.90;99.90;;;;;;4208894;28;20217;-74
2022/07/13 05:21:07;;;;;;;1.80;1.57;;;17.90;99.90;;;;;;4224603;27;20337;-75
2022/07/13 05:23:09;;;;;;;1.97;1.30;;;18.00;99.90;;;;;;4219565;27;20212;-76
2022/07/13 05:25:11;;;;;;;1.93;1.47;;;18.00;99.90;;;;;;4218063;27;20204;-76
2022/07/13 05:27:13;;;;;;;2.13;1.40;;;18.00;99.90;;;;;;4202018;28;20225;-76
2022/07/13 05:29:15;;;;;;;2.50;1.60;;;18.00;99.90;;;;;;4220955;27;20251;-76
2022/07/13 05:31:17;;;;;;;1.70;1.43;;;18.00;99.90;;;;;;4224704;27;20346;-77
2022/07/13 05:33:20;;;;;;;1.83;1.53;;;18.10;99.90;;;;;;4222714;28;20721;-75
2022/07/13 05:35:23;;;;;;;1.53;1.40;;;18.10;99.90;;;;;;4218338;27;20205;-76
2022/07/13 05:37:25;;;;;;;3.30;1.63;;;18.10;99.90;;;;;;4223247;27;20276;-76
2022/07/13 05:39:27;;;;;;;3.83;1.70;;;18.20;99.90;;;;;;4214079;28;20240;-76
2022/07/13 05:41:29;;;;;;;3.60;1.70;;;18.20;99.90;;;;;;4230834;27;20311;-76
2022/07/13 05:43:31;;;;;;;3.37;1.73;;;18.20;99.90;;;;;;4228715;27;20255;-75
2022/07/13 05:45:33;;;;;;;3.00;1.60;;;18.20;99.90;;;;;;4226427;27;20255;-73
2022/07/13 05:47:35;;;;;;;2.33;1.70;;;18.20;99.90;;;;;;4207169;28;20470;-76
2022/07/13 05:49:37;;;;;;;2.97;1.60;;;18.20;99.90;;;;;;4212777;28;20206;-76
2022/07/13 05:51:40;;;;;;;1.77;1.60;;;18.30;99.90;;;;;;4223528;27;20207;-76
2022/07/13 05:53:42;;;;;;;2.73;1.70;;;18.30;99.90;;;;;;4222294;27;20200;-76
2022/07/13 05:55:44;;;;;;;1.93;1.40;;;18.40;99.90;;;;;;4204772;28;20714;-76
2022/07/13 05:57:46;;;;;;;2.33;1.70;;;18.40;99.90;;;;;;4224736;27;20283;-76
2022/07/13 05:59:48;;;;;;;2.37;1.63;;;18.40;99.90;;;;;;4220379;27;20217;-73
2022/07/13 06:01:50;;;;;;;2.20;1.80;;;18.50;99.90;;;;;;4223538;28;20205;-72
2022/07/13 06:03:52;;;;;;;3.20;1.40;;;18.50;99.90;;;;;;4208302;28;20213;-75
2022/07/13 06:05:54;;;;;;;2.13;1.53;;;18.60;99.90;;;;;;4223705;27;20228;-75
2022/07/13 06:07:57;;;;;;;3.63;1.70;;;18.60;99.90;;;;;;4209409;28;20663;-76
2022/07/13 06:10:01;;;;;;;3.00;1.47;;;18.70;99.90;;;;;;4224237;27;20586;-76
2022/07/13 06:12:03;;;;;;;1.93;1.60;;;18.80;99.90;;;;;;4229920;27;20265;-76
2022/07/13 06:14:05;;;;;;;2.30;1.70;;;18.80;99.90;;;;;;4228254;27;20201;-73
2022/07/13 06:16:08;;;;;;;4.57;1.93;;;18.90;99.90;;;;;;4207861;28;21130;-74
2022/07/13 06:18:10;;;;;;;2.17;1.60;;;18.90;99.90;;;;;;4223940;27;20242;-74
2022/07/13 06:20:12;;;;;;;1.90;1.50;;;19.00;99.90;;;;;;4222508;27;20252;-75
2022/07/13 06:22:15;;;;;;;2.80;1.80;;;19.10;99.90;;;;;;4224609;27;20234;-74
2022/07/13 06:24:19;;;;;;;4.77;1.90;;;19.10;99.90;;;;;;4208005;28;20227;-75
2022/07/13 06:26:21;;;;;;;6.03;2.23;;;19.20;99.90;;;;;;4228353;27;20833;-75
2022/07/13 06:28:23;;;;;;;4.37;1.70;;;19.30;99.90;;;;;;4223545;27;20262;-74
2022/07/13 06:30:25;;;;;;;3.30;2.10;;;19.30;99.90;;;;;;4223563;27;20726;-74
2022/07/13 06:32:27;;;;;;;1.60;1.43;;;19.40;99.90;;;;;;4227066;27;20199;-74
2022/07/13 06:34:29;;;;;;;2.73;1.60;;;19.50;99.90;;;;;;4224567;27;20256;-75
2022/07/13 06:36:31;;;;;;;4.43;1.47;;;19.50;99.90;;;;;;4229686;27;20688;-75
2022/07/13 06:38:33;;;;;;;7.27;1.63;;;19.60;99.90;;;;;;4226535;27;20641;-75
2022/07/13 06:40:36;;;;;;;1.80;1.53;;;19.60;99.90;;;;;;4223711;28;20221;-74
2022/07/13 06:42:38;;;;;;;3.33;1.70;;;19.70;99.90;;;;;;4225195;27;20211;-75
2022/07/13 06:44:40;;;;;;;3.10;1.90;;;19.80;99.90;;;;;;4224324;27;20297;-75
2022/07/13 06:46:42;;;;;;;3.53;1.53;;;19.90;99.90;;;;;;4212065;28;20632;-75
2022/07/13 06:48:44;;;;;;;2.37;1.57;;;19.90;99.90;;;;;;4225516;27;20623;-75
2022/07/13 06:50:46;;;;;;;5.10;1.73;;;20.00;99.90;;;;;;4229651;27;20289;-75
2022/07/13 06:52:48;;;;;;;5.17;1.57;;;20.10;99.90;;;;;;4221843;28;20235;-75
2022/07/13 06:54:50;;;;;;;2.70;1.50;;;20.10;99.90;;;;;;4204464;28;20221;-75
2022/07/13 06:56:53;;;;;;;2.03;1.60;;;20.20;99.90;;;;;;4227121;27;20717;-75
2022/07/13 06:58:55;;;;;;;4.03;1.70;;;20.20;99.90;;;;;;4221560;28;20741;-75
2022/07/13 07:00:57;;;;;;;3.50;1.50;;;20.40;99.90;;;;;;4225016;28;20252;-75
2022/07/13 07:02:59;;;;;;;2.73;1.60;;;20.40;99.90;;;;;;4227611;28;20202;-75
2022/07/13 07:05:01;;;;;;;3.60;1.50;;;20.50;99.90;;;;;;4229145;27;20231;-74
2022/07/13 07:07:03;;;;;;;2.10;1.47;;;20.60;99.90;;;;;;4226433;28;20234;-74
2022/07/13 07:09:05;;;;;;;2.87;1.50;;;20.70;99.90;;;;;;4225778;28;20215;-75
2022/07/13 07:11:07;;;;;;;2.70;1.60;;;20.80;99.90;;;;;;4224169;28;20266;-74
2022/07/13 07:13:11;;;;;;;2.80;1.67;;;20.90;99.90;;;;;;4222561;28;20215;-74
2022/07/13 07:15:13;;;;;;;3.10;1.50;;;20.90;99.90;;;;;;4229325;28;20583;-75
2022/07/13 07:17:17;;;;;;;2.20;1.50;;;21.00;99.90;;;;;;4203327;28;20343;-74
2022/07/13 07:19:20;;;;;;;2.90;1.47;;;21.10;99.90;;;;;;4205559;28;20237;-75
2022/07/13 07:21:21;;;;;;;3.87;1.53;;;21.20;99.90;;;;;;4221609;28;20298;-74
2022/07/13 07:23:23;;;;;;;1.63;1.30;;;21.20;99.90;;;;;;4224060;28;20197;-74
2022/07/13 07:25:25;;;;;;;1.77;1.20;;;21.30;99.90;;;;;;4226649;28;20224;-74
2022/07/13 07:27:27;;;;;;;2.17;1.20;;;21.40;99.90;;;;;;4228125;28;20232;-74
2022/07/13 07:29:31;;;;;;;3.20;1.57;;;21.40;99.90;;;;;;4229038;28;20265;-74
2022/07/13 07:31:34;;;;;;;2.00;1.40;;;21.40;99.90;;;;;;4225639;28;20231;-74
2022/07/13 07:33:36;;;;;;;1.47;1.17;;;21.40;98.00;;;;;;4226152;28;20208;-74
2022/07/13 07:35:38;;;;;;;2.30;1.30;;;21.50;99.80;;;;;;4225949;28;20226;-73
2022/07/13 07:37:40;;;;;;;1.40;1.30;;;21.50;98.60;;;;;;4225320;27;20353;-74
2022/07/13 07:39:42;;;;;;;3.63;1.27;;;21.50;99.70;;;;;;4227530;27;20235;-74
2022/07/13 07:41:44;;;;;;;2.03;1.13;;;21.50;97.40;;;;;;4227062;27;20242;-75
2022/07/13 07:43:46;;;;;;;3.10;1.43;;;21.50;99.90;;;;;;4227343;28;20575;-74
2022/07/13 07:45:50;;;;;;;3.43;1.40;;;21.60;97.10;;;;;;4206495;28;20291;-74
2022/07/13 07:47:51;;;;;;;2.03;1.43;;;21.60;96.80;;;;;;4224931;28;20232;-74
2022/07/13 07:49:54;;;;;;;1.83;1.37;;;21.70;95.60;;;;;;4229692;27;20220;-74
2022/07/13 07:51:56;;;;;;;4.87;1.70;;;21.80;97.20;;;;;;4231719;27;20204;-74
2022/07/13 07:53:58;;;;;;;2.13;1.53;;;21.90;92.10;;;;;;4227345;27;20205;-74
2022/07/13 07:55:59;;;;;;;4.00;1.70;;;22.10;94.90;;;;;;4228833;27;20290;-73
2022/07/13 07:58:01;;;;;;;1.90;1.60;;;22.20;89.60;;;;;;4228919;28;20232;-74
2022/07/13 08:00:07;;;;;;;3.10;1.43;;;22.40;85.70;;;;;;4225260;27;20280;-74
2022/07/13 08:02:12;;;;;;;1.97;1.27;;;22.50;89.40;;;;;;4234466;27;20690;-74
2022/07/13 08:04:13;;;;;;;3.17;1.47;;;22.60;83.30;;;;;;4226799;27;20205;-74
2022/07/13 08:06:16;;;;;;;3.60;1.37;;;22.70;86.00;;;;;;4222803;27;20254;-74
2022/07/13 08:08:17;;;;;;;1.80;1.30;;;22.80;87.30;;;;;;4225421;27;20212;-74
2022/07/13 08:10:21;;;;;;;1.67;1.37;;;22.90;82.50;;;;;;4226797;28;20612;-74
2022/07/13 08:12:23;;;;;;;2.70;1.27;;;23.00;89.60;;;;;;4209699;28;20299;-74
2022/07/13 08:14:25;;;;;;;1.80;1.13;;;23.10;85.50;;;;;;4227035;27;20211;-74
2022/07/13 08:16:27;;;;;;;1.97;1.30;;;23.20;83.30;;;;;;4230437;27;20247;-74
2022/07/13 08:18:30;;;;;;;1.90;1.30;;;23.30;82.80;;;;;;4229329;27;20240;-74
2022/07/13 08:20:32;;;;;;;4.53;1.20;;;23.50;81.00;;;;;;4232368;27;20579;-75
2022/07/13 08:22:34;;;;;;;4.03;1.30;;;23.60;75.80;;;;;;4235817;27;20227;-74
2022/07/13 08:24:36;;;;;;;1.93;1.13;;;23.70;73.30;;;;;;4227025;27;20208;-74
2022/07/13 08:26:38;;;;;;;1.57;1.20;;;23.80;70.30;;;;;;4229344;28;20224;-75
2022/07/13 08:28:40;;;;;;;2.37;1.23;;;23.90;67.20;;;;;;4225602;27;20201;-74
2022/07/13 08:30:42;;;;;;;3.03;1.27;;;24.00;70.40;;;;;;4223862;27;20209;-74
2022/07/13 08:32:44;;;;;;;2.23;1.37;;;24.10;71.90;;;;;;4229704;27;20205;-74
2022/07/13 08:39:26;;;;;;;1.53;1.10;;;24.40;63.70;;;;;;4223554;27;20197;-74
2022/07/13 08:41:29;;;;;;;3.83;1.40;;;24.50;69.80;;;;;;4228186;27;20229;-74
2022/07/13 08:43:33;;;;;;;3.93;1.40;;;24.60;61.20;;;;;;4227067;27;20212;-74
2022/07/13 08:45:36;;;;;;;3.23;1.43;;;24.70;61.80;;;;;;4209380;28;20251;-74
2022/07/13 08:47:43;;;;;;;1.63;1.20;;;24.70;63.50;;;;;;4227604;27;20201;-74
2022/07/13 08:49:45;;;;;;;1.53;1.20;;;24.80;62.20;;;;;;4213269;28;20209;-74
2022/07/13 08:51:49;;;;;;;2.23;1.00;;;24.90;62.30;;;;;;4227421;27;20193;-74
2022/07/13 08:53:58;;;;;;;1.37;1.10;;;25.00;61.60;;;;;;4228827;27;20630;-75
2022/07/13 08:56:01;;;;;;;1.83;1.20;;;25.10;55.40;;;;;;4228847;27;20234;-74
2022/07/13 08:58:03;;;;;;;2.80;1.50;;;25.20;53.40;;;;;;4226675;27;20200;-74
2022/07/13 09:00:07;;;;;;;1.87;1.20;;;25.20;54.20;;;;;;4227188;28;20668;-74
2022/07/13 09:02:10;;;;;;;1.07;0.97;;;25.40;52.80;;;;;;4205164;28;20617;-74
2022/07/13 09:04:12;;;;;;;3.00;1.00;;;25.40;51.10;;;;;;4222311;27;20748;-74
2022/07/13 09:06:41;;;;;;;2.63;1.00;;;25.60;52.80;;;;;;4222596;27;20225;-74
2022/07/13 09:08:45;;;;;;;1.33;0.90;;;25.60;50.30;;;;;;4223587;28;20234;-74
2022/07/13 09:10:56;;;;;;;3.27;1.00;;;25.70;49.40;;;;;;4228103;27;20211;-74
2022/07/13 09:12:58;;;;;;;1.23;1.03;;;25.80;48.80;;;;;;4228351;28;20235;-74
2022/07/13 09:15:02;;;;;;;2.07;1.07;;;26.00;49.80;;;;;;4210895;28;20736;-74
2022/07/13 09:17:04;;;;;;;2.20;1.10;;;26.10;50.10;;;;;;4225213;27;20248;-74
2022/07/13 09:19:06;;;;;;;1.03;0.93;;;26.10;50.00;;;;;;4233744;27;20240;-74
2022/07/13 09:21:09;;;;;;;2.03;0.90;;;26.20;50.20;;;;;;4226800;28;20236;-74
2022/07/13 09:23:10;;;;;;;2.53;1.00;;;26.30;51.70;;;;;;4206227;28;20656;-75
2022/07/13 09:25:25;;;;;;;1.00;0.90;;;26.40;53.30;;;;;;4224181;28;20197;-75
2022/07/13 09:27:27;;;;;;;1.60;1.10;;;26.50;51.40;;;;;;4223915;27;20227;-74
2022/07/13 09:29:30;;;;;;;1.80;1.10;;;26.70;48.90;;;;;;4222392;27;20294;-74
2022/07/13 09:31:31;;;;;;;1.50;0.93;;;26.80;46.90;;;;;;4209099;28;20267;-74
2022/07/13 09:33:34;;;;;;;1.23;0.97;;;26.70;45.90;;;;;;4225543;27;20210;-74
2022/07/13 09:35:45;;;;;;;3.77;1.00;;;26.80;46.80;;;;;;4229353;27;20783;-74
2022/07/13 09:37:50;;;;;;;1.10;1.00;;;26.80;47.30;;;;;;4228305;28;20254;-74
2022/07/13 09:40:00;;;;;;;1.00;0.83;;;26.80;47.70;;;;;;4224721;27;20208;-74
2022/07/13 09:42:03;;;;;;;1.90;1.10;;;27.00;46.80;;;;;;4228437;28;20719;-74
2022/07/13 09:46:32;;;;;;;1.47;1.00;;;27.10;44.90;;;;;;4208700;28;20703;-74
2022/07/13 09:48:34;;;;;;;1.60;1.20;;;27.10;44.20;;;;;;4212644;28;20209;-74
2022/07/13 09:50:41;;;;;;;1.40;1.10;;;27.10;44.00;;;;;;4223990;28;20256;-74
2022/07/13 09:52:50;;;;;;;1.23;0.90;;;27.10;44.20;;;;;;4224661;27;20253;-74
2022/07/13 09:54:57;;;;;;;2.23;1.00;;;27.10;45.30;;;;;;4229117;27;20224;-75
2022/07/13 09:57:01;;;;;;;1.37;0.83;;;27.20;44.10;;;;;;4222015;28;20236;-75
2022/07/13 09:59:07;;;;;;;1.10;0.90;;;27.20;45.70;;;;;;4207253;28;20726;-75
2022/07/13 10:01:09;;;;;;;1.17;0.80;;;27.20;44.40;;;;;;4201806;28;20297;-75
2022/07/13 10:03:13;;;;;;;1.53;1.23;;;27.20;44.80;;;;;;4206958;28;20250;-75
2022/07/13 10:05:19;;;;;;;2.20;1.00;;;27.30;43.90;;;;;;4204955;28;20205;-75
2022/07/13 10:07:21;;;;;;;4.07;0.90;;;27.30;42.60;;;;;;4211643;28;20213;-75
2022/07/13 10:09:27;;;;;;;2.47;0.90;;;27.30;42.90;;;;;;4207089;28;20258;-75
2022/07/13 10:11:29;;;;;;;1.10;1.00;;;27.40;42.30;;;;;;4225078;28;20208;-75
2022/07/13 10:13:32;;;;;;;1.30;1.10;;;27.40;41.80;;;;;;4209203;28;20202;-75
2022/07/13 10:15:37;;;;;;;3.13;1.17;;;27.50;41.10;;;;;;4206339;28;20212;-75
2022/07/13 10:17:40;;;;;;;0.73;0.73;;;27.70;41.00;;;;;;4226121;28;20196;-75
2022/07/13 10:19:49;;;;;;;1.50;0.93;;;27.80;40.00;;;;;;4224433;27;20201;-75
2022/07/13 10:22:02;;;;;;;2.20;0.83;;;27.90;40.50;;;;;;4226324;27;20352;-75
2022/07/13 10:24:14;;;;;;;1.33;0.70;;;28.10;38.60;;;;;;4224383;28;20230;-75
2022/07/13 10:26:21;;;;;;;1.67;1.10;;;28.20;39.10;;;;;;4222301;28;20745;-74
2022/07/13 10:28:26;;;;;;;2.73;0.90;;;28.40;38.50;;;;;;4222874;27;20211;-74
2022/07/13 10:30:28;;;;;;;1.53;0.80;;;28.50;38.60;;;;;;4222171;28;20204;-74
2022/07/13 10:32:32;;;;;;;1.63;0.97;;;28.60;38.50;;;;;;4223311;27;20194;-74
2022/07/13 10:34:51;;;;;;;2.08;0.75;;;28.60;37.60;;;;;;4232696;27;20572;-75
2022/07/13 10:36:57;;;;;;;0.85;0.80;;;28.70;35.50;;;;;;4223484;27;20331;-75
2022/07/13 10:39:10;;;;;;;1.45;0.82;;;28.80;36.60;;;;;;4225489;27;20209;-74
2022/07/13 10:41:20;;;;;;;1.77;0.70;;;28.90;36.00;;;;;;4220582;28;20201;-74
2022/07/13 10:43:23;;;;;;;0.70;0.70;;;29.00;36.70;;;;;;4223269;28;20237;-75
2022/07/13 10:45:43;;;;;;;1.02;0.68;;;29.00;33.70;;;;;;4221762;28;20281;-76
2022/07/13 10:47:48;;;;;;;2.20;0.80;;;29.00;34.30;;;;;;4251177;22;20590;-75
2022/07/13 10:49:52;;;;;;;2.05;0.90;;;29.00;34.60;;;;;;4232419;28;20284;-75
2022/07/13 10:51:55;;;;;;;1.23;0.80;;;29.00;34.30;;;;;;4216713;28;20211;-75
2022/07/13 10:54:09;;;;;;;0.90;0.68;;;29.00;33.80;;;;;;4218372;28;20224;-75
2022/07/13 10:56:17;;;;;;;1.20;0.75;;;28.80;34.00;;;;;;4236547;27;20572;-75
2022/07/13 10:58:44;;;;;;;2.17;0.70;;;28.80;35.30;;;;;;4205788;28;20605;-75
2022/07/13 11:00:48;;;;;;;1.50;0.90;;;28.80;35.30;;;;;;4190821;28;20237;-75
2022/07/13 11:02:54;;;;;;;1.23;0.80;;;28.90;35.60;;;;;;4193615;28;20229;-75
2022/07/13 11:05:00;;;;;;;1.02;0.77;;;28.90;35.00;;;;;;4208003;28;20205;-76
2022/07/13 11:07:07;;;;;;;1.13;0.85;;;28.90;36.20;;;;;;4186485;28;20726;-76
2022/07/13 11:09:14;;;;;;;0.82;0.77;;;29.00;35.50;;;;;;4191654;28;20296;-75
2022/07/13 11:11:19;;;;;;;2.35;0.90;;;29.10;35.60;;;;;;4203674;28;20205;-75
2022/07/13 11:13:27;;;;;;;2.83;0.75;;;29.10;34.30;;;;;;4204228;28;20197;-75
2022/07/13 11:15:46;;;;;;;0.88;0.88;;;29.10;34.30;;;;;;4208541;28;20200;-75
2022/07/13 11:17:54;;;;;;;2.00;0.98;;;29.10;33.90;;;;;;4204184;28;20607;-75
2022/07/13 11:20:02;;;;;;;0.65;0.65;;;29.10;34.30;;;;;;4205780;28;20217;-75
2022/07/13 11:22:07;;;;;;;1.67;0.80;;;29.10;33.70;;;;;;4209419;28;20216;-75
2022/07/13 11:26:51;;;;;;;1.38;0.80;;;29.30;32.50;;;;;;4202520;28;20721;-77
2022/07/13 11:29:06;;;;;;;2.13;0.75;;;29.50;32.70;;;;;;4204379;28;20212;-77
2022/07/13 11:31:09;;;;;;;1.08;0.73;;;29.70;32.80;;;;;;4203897;28;20786;-77
2022/07/13 11:33:12;;;;;;;4.45;1.30;;;29.90;33.10;;;;;;4205319;28;20552;-77
2022/07/13 11:35:14;;;;;;;0.98;0.70;;;30.10;31.90;;;;;;4204772;28;20304;-77
2022/07/13 11:37:23;;;;;;;1.27;0.90;;;30.30;31.50;;;;;;4189643;28;20233;-77
2022/07/13 11:39:26;;;;;;;2.03;0.95;;;30.40;31.10;;;;;;4204084;28;20202;-77
2022/07/13 11:41:28;;;;;;;1.30;0.98;;;30.60;30.90;;;;;;4188338;28;20205;-77
2022/07/13 11:43:30;;;;;;;0.88;0.70;;;30.70;29.50;;;;;;4185661;28;20234;-77
2022/07/13 11:45:33;;;;;;;0.95;0.80;;;30.80;29.80;;;;;;4207572;28;20761;-77